sensor_id;sensor_type;location;lat;lon;timestamp;temperature;humidity
22364;DHT22;11349;53.412;-1.328;2022-11-12T00:01:00;13.60;1.00
22364;DHT22;11349;53.412;-1.328;2022-11-12T00:03:26;13.70;1.00
22364;DHT22;11349;53.412;-1.328;2022-11-12T00:05:52;13.80;1.00
22364;DHT22;11349;53.412;-1.328;2022-11-12T00:08:18;13.70;1.00
22364;DHT22;11349;53.412;-1.328;2022-11-12T00:10:44;13.90;1.00
22364;DHT22;11349;53.412;-1.328;2022-11-12T00:13:10;13.80;1.00
22364;DHT22;11349;53.412;-1.328;2022-11-12T00:15:35;13.50;1.00
22364;DHT22;11349;53.412;-1.328;2022-11-12T00:18:01;13.40;1.00
22364;DHT22;11349;53.412;-1.328;2022-11-12T00:20:27;13.10;99.90
22364;DHT22;11349;53.412;-1.328;2022-11-12T00:22:52;13.00;99.90
22364;DHT22;11349;53.412;-1.328;2022-11-12T00:25:18;13.10;99.90
22364;DHT22;11349;53.412;-1.328;2022-11-12T00:27:44;13.20;99.90
22364;DHT22;11349;53.412;-1.328;2022-11-12T00:30:10;13.10;99.90
22364;DHT22;11349;53.412;-1.328;2022-11-12T00:32:36;12.80;99.90
22364;DHT22;11349;53.412;-1.328;2022-11-12T00:35:03;12.60;99.90
22364;DHT22;11349;53.412;-1.328;2022-11-12T00:37:29;12.50;99.90
22364;DHT22;11349;53.412;-1.328;2022-11-12T00:39:55;12.40;99.90
22364;DHT22;11349;53.412;-1.328;2022-11-12T00:42:21;12.30;99.90
22364;DHT22;11349;53.412;-1.328;2022-11-12T00:44:46;12.30;99.90
22364;DHT22;11349;53.412;-1.328;2022-11-12T00:47:14;12.20;99.90
22364;DHT22;11349;53.412;-1.328;2022-11-12T00:49:40;12.20;99.90
22364;DHT22;11349;53.412;-1.328;2022-11-12T00:52:06;12.20;99.90
22364;DHT22;11349;53.412;-1.328;2022-11-12T00:54:32;12.20;99.90
22364;DHT22;11349;53.412;-1.328;2022-11-12T00:56:57;12.10;99.90
22364;DHT22;11349;53.412;-1.328;2022-11-12T00:59:23;12.10;99.90
22364;DHT22;11349;53.412;-1.328;2022-11-12T01:01:49;12.10;99.90
22364;DHT22;11349;53.412;-1.328;2022-11-12T01:04:15;12.20;99.90
22364;DHT22;11349;53.412;-1.328;2022-11-12T01:06:40;12.20;99.90
22364;DHT22;11349;53.412;-1.328;2022-11-12T01:09:07;12.20;99.90
22364;DHT22;11349;53.412;-1.328;2022-11-12T01:11:34;12.40;99.90
22364;DHT22;11349;53.412;-1.328;2022-11-12T01:14:02;12.40;99.90
22364;DHT22;11349;53.412;-1.328;2022-11-12T01:16:31;12.40;99.90
22364;DHT22;11349;53.412;-1.328;2022-11-12T01:18:58;12.50;99.90
22364;DHT22;11349;53.412;-1.328;2022-11-12T01:21:27;12.60;99.90
22364;DHT22;11349;53.412;-1.328;2022-11-12T01:23:53;13.00;22.20
22364;DHT22;11349;53.412;-1.328;2022-11-12T01:26:20;13.30;1.00
22364;DHT22;11349;53.412;-1.328;2022-11-12T01:28:47;13.70;1.00
22364;DHT22;11349;53.412;-1.328;2022-11-12T01:33:43;14.00;1.00
22364;DHT22;11349;53.412;-1.328;2022-11-12T01:36:09;14.20;1.00
22364;DHT22;11349;53.412;-1.328;2022-11-12T01:38:37;14.40;1.00
22364;DHT22;11349;53.412;-1.328;2022-11-12T01:41:04;14.50;1.00
22364;DHT22;11349;53.412;-1.328;2022-11-12T01:43:30;14.50;1.00
22364;DHT22;11349;53.412;-1.328;2022-11-12T01:45:56;14.50;1.00
22364;DHT22;11349;53.412;-1.328;2022-11-12T01:48:26;14.50;1.00
22364;DHT22;11349;53.412;-1.328;2022-11-12T01:50:54;14.60;99.90
22364;DHT22;11349;53.412;-1.328;2022-11-12T01:53:22;14.50;99.90
22364;DHT22;11349;53.412;-1.328;2022-11-12T01:55:49;14.50;99.90
22364;DHT22;11349;53.412;-1.328;2022-11-12T01:58:18;14.60;99.90
22364;DHT22;11349;53.412;-1.328;2022-11-12T02:00:44;14.50;99.90
22364;DHT22;11349;53.412;-1.328;2022-11-12T02:03:21;14.50;99.90
22364;DHT22;11349;53.412;-1.328;2022-11-12T02:05:52;14.70;99.90
22364;DHT22;11349;53.412;-1.328;2022-11-12T02:08:20;14.50;99.90
22364;DHT22;11349;53.412;-1.328;2022-11-12T02:10:47;14.60;99.90
22364;DHT22;11349;53.412;-1.328;2022-11-12T02:13:12;14.40;99.90
22364;DHT22;11349;53.412;-1.328;2022-11-12T02:15:57;14.30;99.90
22364;DHT22;11349;53.412;-1.328;2022-11-12T02:18:23;14.50;99.90
22364;DHT22;11349;53.412;-1.328;2022-11-12T02:21:03;14.50;99.90
22364;DHT22;11349;53.412;-1.328;2022-11-12T02:23:29;14.60;99.90
22364;DHT22;11349;53.412;-1.328;2022-11-12T02:25:59;14.60;99.90
22364;DHT22;11349;53.412;-1.328;2022-11-12T02:28:26;14.50;99.90
22364;DHT22;11349;53.412;-1.328;2022-11-12T02:30:53;14.70;99.90
22364;DHT22;11349;53.412;-1.328;2022-11-12T02:33:18;14.80;99.90
22364;DHT22;11349;53.412;-1.328;2022-11-12T02:35:44;14.90;99.90
22364;DHT22;11349;53.412;-1.328;2022-11-12T02:38:10;14.80;99.90
22364;DHT22;11349;53.412;-1.328;2022-11-12T02:40:35;14.80;99.90
22364;DHT22;11349;53.412;-1.328;2022-11-12T02:43:01;14.80;99.90
22364;DHT22;11349;53.412;-1.328;2022-11-12T02:45:27;15.10;99.90
22364;DHT22;11349;53.412;-1.328;2022-11-12T02:47:55;15.00;99.90
22364;DHT22;11349;53.412;-1.328;2022-11-12T02:50:20;15.00;99.90
22364;DHT22;11349;53.412;-1.328;2022-11-12T02:52:46;14.90;99.90
22364;DHT22;11349;53.412;-1.328;2022-11-12T02:55:12;14.90;99.90
22364;DHT22;11349;53.412;-1.328;2022-11-12T02:57:38;14.90;99.90
22364;DHT22;11349;53.412;-1.328;2022-11-12T03:00:10;15.00;99.90
22364;DHT22;11349;53.412;-1.328;2022-11-12T03:02:36;15.00;99.90
22364;DHT22;11349;53.412;-1.328;2022-11-12T03:05:11;15.10;99.90
22364;DHT22;11349;53.412;-1.328;2022-11-12T03:07:37;15.10;99.90
22364;DHT22;11349;53.412;-1.328;2022-11-12T03:10:04;15.20;99.90
22364;DHT22;11349;53.412;-1.328;2022-11-12T03:12:31;15.20;99.90
22364;DHT22;11349;53.412;-1.328;2022-11-12T03:14:56;15.30;99.90
22364;DHT22;11349;53.412;-1.328;2022-11-12T03:17:22;15.30;99.90
22364;DHT22;11349;53.412;-1.328;2022-11-12T03:19:48;15.30;99.90
22364;DHT22;11349;53.412;-1.328;2022-11-12T03:22:14;15.40;99.90
22364;DHT22;11349;53.412;-1.328;2022-11-12T03:24:39;15.30;99.90
22364;DHT22;11349;53.412;-1.328;2022-11-12T03:27:05;15.30;99.90
22364;DHT22;11349;53.412;-1.328;2022-11-12T03:29:31;15.40;99.90
22364;DHT22;11349;53.412;-1.328;2022-11-12T03:31:56;15.50;99.90
22364;DHT22;11349;53.412;-1.328;2022-11-12T03:34:22;15.40;99.90
22364;DHT22;11349;53.412;-1.328;2022-11-12T03:36:48;15.30;99.90
22364;DHT22;11349;53.412;-1.328;2022-11-12T03:39:13;15.30;99.90
22364;DHT22;11349;53.412;-1.328;2022-11-12T03:41:39;15.30;99.90
22364;DHT22;11349;53.412;-1.328;2022-11-12T03:44:05;15.20;99.90
22364;DHT22;11349;53.412;-1.328;2022-11-12T03:46:33;15.20;99.90
22364;DHT22;11349;53.412;-1.328;2022-11-12T03:48:58;15.30;99.90
22364;DHT22;11349;53.412;-1.328;2022-11-12T03:51:26;15.20;99.90
22364;DHT22;11349;53.412;-1.328;2022-11-12T03:53:52;15.20;99.90
22364;DHT22;11349;53.412;-1.328;2022-11-12T03:56:18;15.20;99.90
22364;DHT22;11349;53.412;-1.328;2022-11-12T03:58:43;15.10;99.90
22364;DHT22;11349;53.412;-1.328;2022-11-12T04:01:09;15.20;99.90
22364;DHT22;11349;53.412;-1.328;2022-11-12T04:03:35;15.10;99.90
22364;DHT22;11349;53.412;-1.328;2022-11-12T04:06:00;15.10;99.90
22364;DHT22;11349;53.412;-1.328;2022-11-12T04:08:45;15.20;99.90
22364;DHT22;11349;53.412;-1.328;2022-11-12T04:11:14;15.20;99.90
22364;DHT22;11349;53.412;-1.328;2022-11-12T04:13:41;15.30;99.90
22364;DHT22;11349;53.412;-1.328;2022-11-12T04:16:11;15.20;99.90
22364;DHT22;11349;53.412;-1.328;2022-11-12T04:18:56;15.30;99.90
22364;DHT22;11349;53.412;-1.328;2022-11-12T04:21:53;15.40;99.90
22364;DHT22;11349;53.412;-1.328;2022-11-12T04:24:23;15.50;99.90
22364;DHT22;11349;53.412;-1.328;2022-11-12T04:27:11;15.40;99.90
22364;DHT22;11349;53.412;-1.328;2022-11-12T04:29:37;15.40;99.90
22364;DHT22;11349;53.412;-1.328;2022-11-12T04:32:22;15.40;99.90
22364;DHT22;11349;53.412;-1.328;2022-11-12T04:34:48;15.40;99.90
22364;DHT22;11349;53.412;-1.328;2022-11-12T04:37:14;15.30;99.90
22364;DHT22;11349;53.412;-1.328;2022-11-12T04:39:39;15.30;99.90
22364;DHT22;11349;53.412;-1.328;2022-11-12T04:42:08;15.20;99.90
22364;DHT22;11349;53.412;-1.328;2022-11-12T04:44:52;15.30;99.90
22364;DHT22;11349;53.412;-1.328;2022-11-12T04:47:25;15.30;99.90
22364;DHT22;11349;53.412;-1.328;2022-11-12T04:49:51;15.20;99.90
22364;DHT22;11349;53.412;-1.328;2022-11-12T04:52:17;15.40;99.90
22364;DHT22;11349;53.412;-1.328;2022-11-12T04:54:43;15.40;99.90
22364;DHT22;11349;53.412;-1.328;2022-11-12T04:57:08;15.30;99.90
22364;DHT22;11349;53.412;-1.328;2022-11-12T04:59:34;15.30;99.90
22364;DHT22;11349;53.412;-1.328;2022-11-12T05:02:00;15.30;99.90
22364;DHT22;11349;53.412;-1.328;2022-11-12T05:04:26;15.20;99.90
22364;DHT22;11349;53.412;-1.328;2022-11-12T05:06:55;15.20;99.90
22364;DHT22;11349;53.412;-1.328;2022-11-12T05:09:23;15.20;99.90
22364;DHT22;11349;53.412;-1.328;2022-11-12T05:11:50;15.10;99.90
22364;DHT22;11349;53.412;-1.328;2022-11-12T05:14:15;14.90;99.90
22364;DHT22;11349;53.412;-1.328;2022-11-12T05:16:42;15.10;99.90
22364;DHT22;11349;53.412;-1.328;2022-11-12T05:19:07;15.00;99.90
22364;DHT22;11349;53.412;-1.328;2022-11-12T05:21:33;14.90;99.90
22364;DHT22;11349;53.412;-1.328;2022-11-12T05:24:17;14.90;99.90
22364;DHT22;11349;53.412;-1.328;2022-11-12T05:26:43;14.80;99.90
22364;DHT22;11349;53.412;-1.328;2022-11-12T05:29:08;14.90;99.90
22364;DHT22;11349;53.412;-1.328;2022-11-12T05:31:34;14.90;99.90
22364;DHT22;11349;53.412;-1.328;2022-11-12T05:34:00;14.80;99.90
22364;DHT22;11349;53.412;-1.328;2022-11-12T05:36:25;14.50;99.90
22364;DHT22;11349;53.412;-1.328;2022-11-12T05:38:52;14.50;99.90
22364;DHT22;11349;53.412;-1.328;2022-11-12T05:41:18;14.50;99.90
22364;DHT22;11349;53.412;-1.328;2022-11-12T05:43:44;14.40;99.90
22364;DHT22;11349;53.412;-1.328;2022-11-12T05:46:09;14.20;99.90
22364;DHT22;11349;53.412;-1.328;2022-11-12T05:48:35;14.00;99.90
22364;DHT22;11349;53.412;-1.328;2022-11-12T05:51:01;13.90;99.90
22364;DHT22;11349;53.412;-1.328;2022-11-12T05:53:27;13.80;99.90
22364;DHT22;11349;53.412;-1.328;2022-11-12T05:55:52;13.40;99.90
22364;DHT22;11349;53.412;-1.328;2022-11-12T05:58:18;13.10;99.90
22364;DHT22;11349;53.412;-1.328;2022-11-12T06:00:44;12.80;99.90
22364;DHT22;11349;53.412;-1.328;2022-11-12T06:03:11;12.80;1.00
22364;DHT22;11349;53.412;-1.328;2022-11-12T06:05:37;12.90;99.90
22364;DHT22;11349;53.412;-1.328;2022-11-12T06:08:04;12.90;99.90
22364;DHT22;11349;53.412;-1.328;2022-11-12T06:10:31;13.20;99.90
22364;DHT22;11349;53.412;-1.328;2022-11-12T06:12:57;13.00;99.90
22364;DHT22;11349;53.412;-1.328;2022-11-12T06:15:23;12.40;99.90
22364;DHT22;11349;53.412;-1.328;2022-11-12T06:17:52;12.20;99.90
22364;DHT22;11349;53.412;-1.328;2022-11-12T06:20:18;12.20;99.90
22364;DHT22;11349;53.412;-1.328;2022-11-12T06:22:44;12.50;99.90
22364;DHT22;11349;53.412;-1.328;2022-11-12T06:25:10;12.10;99.90
22364;DHT22;11349;53.412;-1.328;2022-11-12T06:27:36;12.20;99.90
22364;DHT22;11349;53.412;-1.328;2022-11-12T06:30:03;12.10;99.90
22364;DHT22;11349;53.412;-1.328;2022-11-12T06:32:29;12.20;99.90
22364;DHT22;11349;53.412;-1.328;2022-11-12T06:34:55;12.30;99.90
22364;DHT22;11349;53.412;-1.328;2022-11-12T06:37:20;12.20;99.90
22364;DHT22;11349;53.412;-1.328;2022-11-12T06:39:47;11.80;99.90
22364;DHT22;11349;53.412;-1.328;2022-11-12T06:42:13;11.70;99.90
22364;DHT22;11349;53.412;-1.328;2022-11-12T06:44:39;11.60;99.90
22364;DHT22;11349;53.412;-1.328;2022-11-12T06:47:05;11.60;99.90
22364;DHT22;11349;53.412;-1.328;2022-11-12T06:49:31;11.50;99.90
22364;DHT22;11349;53.412;-1.328;2022-11-12T06:51:57;11.20;99.90
22364;DHT22;11349;53.412;-1.328;2022-11-12T06:54:23;11.20;99.90
22364;DHT22;11349;53.412;-1.328;2022-11-12T06:56:48;11.20;99.90
22364;DHT22;11349;53.412;-1.328;2022-11-12T06:59:14;11.10;99.90
22364;DHT22;11349;53.412;-1.328;2022-11-12T07:01:40;11.10;99.90
22364;DHT22;11349;53.412;-1.328;2022-11-12T07:04:06;11.20;99.90
22364;DHT22;11349;53.412;-1.328;2022-11-12T07:06:32;11.60;99.90
22364;DHT22;11349;53.412;-1.328;2022-11-12T07:08:58;11.70;99.90
22364;DHT22;11349;53.412;-1.328;2022-11-12T07:11:24;11.80;99.90
22364;DHT22;11349;53.412;-1.328;2022-11-12T07:13:49;11.60;99.90
22364;DHT22;11349;53.412;-1.328;2022-11-12T07:16:17;11.80;99.90
22364;DHT22;11349;53.412;-1.328;2022-11-12T07:18:46;11.80;99.90
22364;DHT22;11349;53.412;-1.328;2022-11-12T07:21:17;11.70;99.90
22364;DHT22;11349;53.412;-1.328;2022-11-12T07:23:44;11.50;99.90
22364;DHT22;11349;53.412;-1.328;2022-11-12T07:26:15;11.60;99.90
22364;DHT22;11349;53.412;-1.328;2022-11-12T07:28:46;11.70;99.90
22364;DHT22;11349;53.412;-1.328;2022-11-12T07:31:13;11.90;99.90
22364;DHT22;11349;53.412;-1.328;2022-11-12T07:33:40;11.90;99.90
22364;DHT22;11349;53.412;-1.328;2022-11-12T07:36:14;11.70;99.90
22364;DHT22;11349;53.412;-1.328;2022-11-12T07:38:41;11.90;99.90
22364;DHT22;11349;53.412;-1.328;2022-11-12T07:41:10;11.90;99.90
22364;DHT22;11349;53.412;-1.328;2022-11-12T07:43:37;12.10;99.90
22364;DHT22;11349;53.412;-1.328;2022-11-12T07:46:12;12.40;99.90
22364;DHT22;11349;53.412;-1.328;2022-11-12T07:48:39;12.20;99.90
22364;DHT22;11349;53.412;-1.328;2022-11-12T07:51:10;12.00;99.90
22364;DHT22;11349;53.412;-1.328;2022-11-12T07:53:36;12.10;99.90
22364;DHT22;11349;53.412;-1.328;2022-11-12T07:56:11;12.30;99.90
22364;DHT22;11349;53.412;-1.328;2022-11-12T07:58:37;12.40;99.90
22364;DHT22;11349;53.412;-1.328;2022-11-12T08:01:32;12.20;99.90
22364;DHT22;11349;53.412;-1.328;2022-11-12T08:04:00;12.40;99.90
22364;DHT22;11349;53.412;-1.328;2022-11-12T08:06:27;12.70;99.90
22364;DHT22;11349;53.412;-1.328;2022-11-12T08:08:53;12.70;99.90
22364;DHT22;11349;53.412;-1.328;2022-11-12T08:11:19;12.30;99.90
22364;DHT22;11349;53.412;-1.328;2022-11-12T08:13:45;12.60;99.90
22364;DHT22;11349;53.412;-1.328;2022-11-12T08:16:11;12.70;99.90
22364;DHT22;11349;53.412;-1.328;2022-11-12T08:18:37;12.40;99.90
22364;DHT22;11349;53.412;-1.328;2022-11-12T08:21:05;12.50;99.90
22364;DHT22;11349;53.412;-1.328;2022-11-12T08:23:32;12.70;99.90
22364;DHT22;11349;53.412;-1.328;2022-11-12T08:26:00;12.80;99.90
22364;DHT22;11349;53.412;-1.328;2022-11-12T08:28:28;12.80;99.90
22364;DHT22;11349;53.412;-1.328;2022-11-12T08:30:54;12.90;99.90
22364;DHT22;11349;53.412;-1.328;2022-11-12T08:33:22;13.00;99.90
22364;DHT22;11349;53.412;-1.328;2022-11-12T08:35:49;12.80;99.90
22364;DHT22;11349;53.412;-1.328;2022-11-12T08:38:15;12.60;99.90
22364;DHT22;11349;53.412;-1.328;2022-11-12T08:40:42;12.50;99.90
22364;DHT22;11349;53.412;-1.328;2022-11-12T08:43:09;12.10;99.90
22364;DHT22;11349;53.412;-1.328;2022-11-12T08:45:39;12.10;99.90
22364;DHT22;11349;53.412;-1.328;2022-11-12T08:48:11;12.20;99.90
22364;DHT22;11349;53.412;-1.328;2022-11-12T08:50:39;12.20;99.90
22364;DHT22;11349;53.412;-1.328;2022-11-12T08:53:09;12.00;99.90
22364;DHT22;11349;53.412;-1.328;2022-11-12T08:55:35;12.00;99.90
22364;DHT22;11349;53.412;-1.328;2022-11-12T08:58:01;12.10;99.90
22364;DHT22;11349;53.412;-1.328;2022-11-12T09:00:47;12.10;99.90
22364;DHT22;11349;53.412;-1.328;2022-11-12T09:03:20;12.20;99.90
22364;DHT22;11349;53.412;-1.328;2022-11-12T09:05:46;12.20;99.90
22364;DHT22;11349;53.412;-1.328;2022-11-12T09:08:15;12.30;99.90
22364;DHT22;11349;53.412;-1.328;2022-11-12T09:10:41;12.40;99.90
22364;DHT22;11349;53.412;-1.328;2022-11-12T09:13:08;12.30;99.90
22364;DHT22;11349;53.412;-1.328;2022-11-12T09:15:34;12.30;99.90
22364;DHT22;11349;53.412;-1.328;2022-11-12T09:18:03;12.50;99.90
22364;DHT22;11349;53.412;-1.328;2022-11-12T09:20:30;12.70;99.90
22364;DHT22;11349;53.412;-1.328;2022-11-12T09:23:00;12.80;99.90
22364;DHT22;11349;53.412;-1.328;2022-11-12T09:25:26;12.90;99.90
22364;DHT22;11349;53.412;-1.328;2022-11-12T09:27:53;13.30;99.90
22364;DHT22;11349;53.412;-1.328;2022-11-12T09:30:19;13.30;99.90
22364;DHT22;11349;53.412;-1.328;2022-11-12T09:32:45;13.40;99.90
22364;DHT22;11349;53.412;-1.328;2022-11-12T09:35:10;13.50;99.90
22364;DHT22;11349;53.412;-1.328;2022-11-12T09:37:37;13.60;99.90
22364;DHT22;11349;53.412;-1.328;2022-11-12T09:40:05;13.30;99.90
22364;DHT22;11349;53.412;-1.328;2022-11-12T09:42:33;13.40;99.90
22364;DHT22;11349;53.412;-1.328;2022-11-12T09:47:33;13.50;99.90
22364;DHT22;11349;53.412;-1.328;2022-11-12T09:50:03;13.30;99.90
22364;DHT22;11349;53.412;-1.328;2022-11-12T09:52:36;13.50;99.90
22364;DHT22;11349;53.412;-1.328;2022-11-12T09:55:28;13.70;99.90
22364;DHT22;11349;53.412;-1.328;2022-11-12T09:57:55;13.70;99.90
22364;DHT22;11349;53.412;-1.328;2022-11-12T10:00:21;13.80;99.90
22364;DHT22;11349;53.412;-1.328;2022-11-12T10:05:51;13.80;99.90
22364;DHT22;11349;53.412;-1.328;2022-11-12T10:08:30;13.70;99.90
22364;DHT22;11349;53.412;-1.328;2022-11-12T10:14:53;13.80;99.90
22364;DHT22;11349;53.412;-1.328;2022-11-12T10:25:19;14.10;99.90
22364;DHT22;11349;53.412;-1.328;2022-11-12T10:27:45;14.00;99.90
22364;DHT22;11349;53.412;-1.328;2022-11-12T10:30:18;13.70;99.90
22364;DHT22;11349;53.412;-1.328;2022-11-12T10:32:46;13.50;99.90
22364;DHT22;11349;53.412;-1.328;2022-11-12T10:35:19;13.70;99.90
22364;DHT22;11349;53.412;-1.328;2022-11-12T10:38:01;13.80;99.90
22364;DHT22;11349;53.412;-1.328;2022-11-12T10:45:27;14.10;99.90
22364;DHT22;11349;53.412;-1.328;2022-11-12T10:47:53;14.10;99.90
22364;DHT22;11349;53.412;-1.328;2022-11-12T10:50:28;13.90;99.90
22364;DHT22;11349;53.412;-1.328;2022-11-12T10:53:00;14.10;99.90
22364;DHT22;11349;53.412;-1.328;2022-11-12T10:55:29;14.10;99.90
22364;DHT22;11349;53.412;-1.328;2022-11-12T11:00:34;14.10;99.90
22364;DHT22;11349;53.412;-1.328;2022-11-12T11:03:05;14.00;99.90
22364;DHT22;11349;53.412;-1.328;2022-11-12T11:08:43;14.50;99.90
22364;DHT22;11349;53.412;-1.328;2022-11-12T11:13:42;14.50;99.90
22364;DHT22;11349;53.412;-1.328;2022-11-12T11:16:12;14.60;99.90
22364;DHT22;11349;53.412;-1.328;2022-11-12T11:18:40;14.70;99.90
22364;DHT22;11349;53.412;-1.328;2022-11-12T11:29:43;14.60;99.90
22364;DHT22;11349;53.412;-1.328;2022-11-12T11:40:43;14.70;99.90
22364;DHT22;11349;53.412;-1.328;2022-11-12T11:48:40;14.80;99.90
22364;DHT22;11349;53.412;-1.328;2022-11-12T11:51:32;14.80;99.90
22364;DHT22;11349;53.412;-1.328;2022-11-12T11:56:40;14.80;99.90
22364;DHT22;11349;53.412;-1.328;2022-11-12T11:59:31;14.80;99.90
22364;DHT22;11349;53.412;-1.328;2022-11-12T12:04:44;14.90;99.90
22364;DHT22;11349;53.412;-1.328;2022-11-12T12:07:36;14.70;99.90
22364;DHT22;11349;53.412;-1.328;2022-11-12T12:13:12;14.90;99.90
22364;DHT22;11349;53.412;-1.328;2022-11-12T12:21:19;14.90;99.90
22364;DHT22;11349;53.412;-1.328;2022-11-12T12:26:54;15.00;99.90
22364;DHT22;11349;53.412;-1.328;2022-11-12T12:29:57;15.10;99.90
22364;DHT22;11349;53.412;-1.328;2022-11-12T12:40:36;15.00;99.90
22364;DHT22;11349;53.412;-1.328;2022-11-12T12:43:25;15.00;99.90
22364;DHT22;11349;53.412;-1.328;2022-11-12T12:45:52;15.00;99.90
22364;DHT22;11349;53.412;-1.328;2022-11-12T12:48:26;15.20;99.90
22364;DHT22;11349;53.412;-1.328;2022-11-12T12:50:52;14.90;99.90
22364;DHT22;11349;53.412;-1.328;2022-11-12T12:55:49;14.90;99.90
22364;DHT22;11349;53.412;-1.328;2022-11-12T12:58:42;14.80;99.90
22364;DHT22;11349;53.412;-1.328;2022-11-12T13:04:02;15.10;99.90
22364;DHT22;11349;53.412;-1.328;2022-11-12T13:07:00;15.10;99.90
22364;DHT22;11349;53.412;-1.328;2022-11-12T13:09:26;15.20;99.90
22364;DHT22;11349;53.412;-1.328;2022-11-12T13:11:54;15.10;99.90
22364;DHT22;11349;53.412;-1.328;2022-11-12T13:19:45;15.30;99.90
22364;DHT22;11349;53.412;-1.328;2022-11-12T13:45:29;15.20;99.90
22364;DHT22;11349;53.412;-1.328;2022-11-12T13:47:57;15.20;99.90
22364;DHT22;11349;53.412;-1.328;2022-11-12T13:50:24;15.20;99.90
22364;DHT22;11349;53.412;-1.328;2022-11-12T13:52:50;15.20;99.90
22364;DHT22;11349;53.412;-1.328;2022-11-12T13:55:21;15.00;99.90
22364;DHT22;11349;53.412;-1.328;2022-11-12T13:57:51;15.00;99.90
22364;DHT22;11349;53.412;-1.328;2022-11-12T14:03:05;15.20;99.90
22364;DHT22;11349;53.412;-1.328;2022-11-12T14:05:33;15.20;99.90
22364;DHT22;11349;53.412;-1.328;2022-11-12T14:08:16;15.30;99.90
22364;DHT22;11349;53.412;-1.328;2022-11-12T14:16:50;15.10;99.90
22364;DHT22;11349;53.412;-1.328;2022-11-12T14:22:20;15.30;99.90
22364;DHT22;11349;53.412;-1.328;2022-11-12T14:24:57;15.20;99.90
22364;DHT22;11349;53.412;-1.328;2022-11-12T14:27:33;14.90;99.90
22364;DHT22;11349;53.412;-1.328;2022-11-12T14:32:37;15.00;99.90
22364;DHT22;11349;53.412;-1.328;2022-11-12T14:41:10;15.20;99.90
22364;DHT22;11349;53.412;-1.328;2022-11-12T14:46:00;15.40;99.90
22364;DHT22;11349;53.412;-1.328;2022-11-12T14:48:26;15.30;99.90
22364;DHT22;11349;53.412;-1.328;2022-11-12T14:51:03;15.30;99.90
22364;DHT22;11349;53.412;-1.328;2022-11-12T14:53:38;15.30;99.90
22364;DHT22;11349;53.412;-1.328;2022-11-12T14:56:08;15.30;99.90
22364;DHT22;11349;53.412;-1.328;2022-11-12T14:58:38;15.30;99.90
22364;DHT22;11349;53.412;-1.328;2022-11-12T15:01:28;15.30;99.90
22364;DHT22;11349;53.412;-1.328;2022-11-12T15:06:35;15.20;99.90
22364;DHT22;11349;53.412;-1.328;2022-11-12T15:09:01;15.30;99.90
22364;DHT22;11349;53.412;-1.328;2022-11-12T15:11:43;15.20;99.90
22364;DHT22;11349;53.412;-1.328;2022-11-12T15:14:21;15.20;99.90
22364;DHT22;11349;53.412;-1.328;2022-11-12T15:16:49;14.80;99.90
22364;DHT22;11349;53.412;-1.328;2022-11-12T15:19:24;15.00;99.90
22364;DHT22;11349;53.412;-1.328;2022-11-12T15:21:52;15.00;99.90
22364;DHT22;11349;53.412;-1.328;2022-11-12T15:24:29;14.70;99.90
22364;DHT22;11349;53.412;-1.328;2022-11-12T15:26:57;14.50;99.90
22364;DHT22;11349;53.412;-1.328;2022-11-12T15:29:27;14.50;99.90
22364;DHT22;11349;53.412;-1.328;2022-11-12T15:34:26;14.70;99.90
22364;DHT22;11349;53.412;-1.328;2022-11-12T15:36:57;14.50;99.90
22364;DHT22;11349;53.412;-1.328;2022-11-12T15:39:24;14.30;99.90
22364;DHT22;11349;53.412;-1.328;2022-11-12T15:42:03;14.00;99.90
22364;DHT22;11349;53.412;-1.328;2022-11-12T15:44:32;13.80;99.90
22364;DHT22;11349;53.412;-1.328;2022-11-12T15:46:59;13.70;99.90
22364;DHT22;11349;53.412;-1.328;2022-11-12T15:49:25;13.50;99.90
22364;DHT22;11349;53.412;-1.328;2022-11-12T15:51:51;13.40;99.90
22364;DHT22;11349;53.412;-1.328;2022-11-12T15:54:17;13.30;99.90
22364;DHT22;11349;53.412;-1.328;2022-11-12T15:56:42;13.30;99.90
22364;DHT22;11349;53.412;-1.328;2022-11-12T15:59:13;13.20;99.90
22364;DHT22;11349;53.412;-1.328;2022-11-12T16:01:40;13.10;99.90
22364;DHT22;11349;53.412;-1.328;2022-11-12T16:04:06;13.00;99.90
22364;DHT22;11349;53.412;-1.328;2022-11-12T16:06:31;12.90;99.90
22364;DHT22;11349;53.412;-1.328;2022-11-12T16:08:57;12.90;99.90
22364;DHT22;11349;53.412;-1.328;2022-11-12T16:11:23;12.90;99.90
22364;DHT22;11349;53.412;-1.328;2022-11-12T16:14:03;12.80;99.90
22364;DHT22;11349;53.412;-1.328;2022-11-12T16:16:30;12.70;99.90
22364;DHT22;11349;53.412;-1.328;2022-11-12T16:18:56;12.70;99.90
22364;DHT22;11349;53.412;-1.328;2022-11-12T16:21:21;12.70;99.90
22364;DHT22;11349;53.412;-1.328;2022-11-12T16:23:47;12.60;99.90
22364;DHT22;11349;53.412;-1.328;2022-11-12T16:26:15;12.60;99.90
22364;DHT22;11349;53.412;-1.328;2022-11-12T16:28:42;12.50;99.90
22364;DHT22;11349;53.412;-1.328;2022-11-12T16:31:08;12.40;99.90
22364;DHT22;11349;53.412;-1.328;2022-11-12T16:33:34;12.30;99.90
22364;DHT22;11349;53.412;-1.328;2022-11-12T16:36:00;12.30;99.90
22364;DHT22;11349;53.412;-1.328;2022-11-12T16:38:26;12.20;99.90
22364;DHT22;11349;53.412;-1.328;2022-11-12T16:40:51;12.20;99.90
22364;DHT22;11349;53.412;-1.328;2022-11-12T16:43:17;12.10;99.90
22364;DHT22;11349;53.412;-1.328;2022-11-12T16:45:43;12.10;99.90
22364;DHT22;11349;53.412;-1.328;2022-11-12T16:48:13;12.00;99.90
22364;DHT22;11349;53.412;-1.328;2022-11-12T16:50:40;12.00;99.90
22364;DHT22;11349;53.412;-1.328;2022-11-12T16:53:05;12.00;99.90
22364;DHT22;11349;53.412;-1.328;2022-11-12T16:55:31;12.00;99.90
22364;DHT22;11349;53.412;-1.328;2022-11-12T16:57:57;11.90;99.90
22364;DHT22;11349;53.412;-1.328;2022-11-12T17:00:23;11.90;99.90
22364;DHT22;11349;53.412;-1.328;2022-11-12T17:02:48;11.90;99.90
22364;DHT22;11349;53.412;-1.328;2022-11-12T17:05:19;11.90;99.90
22364;DHT22;11349;53.412;-1.328;2022-11-12T17:07:46;11.80;99.90
22364;DHT22;11349;53.412;-1.328;2022-11-12T17:10:12;11.70;99.90
22364;DHT22;11349;53.412;-1.328;2022-11-12T17:12:38;11.70;99.90
22364;DHT22;11349;53.412;-1.328;2022-11-12T17:15:05;11.70;99.90
22364;DHT22;11349;53.412;-1.328;2022-11-12T17:17:31;11.60;99.90
22364;DHT22;11349;53.412;-1.328;2022-11-12T17:19:57;11.50;99.90
22364;DHT22;11349;53.412;-1.328;2022-11-12T17:22:23;11.50;99.90
22364;DHT22;11349;53.412;-1.328;2022-11-12T17:24:48;11.50;99.90
22364;DHT22;11349;53.412;-1.328;2022-11-12T17:27:14;11.50;99.90
22364;DHT22;11349;53.412;-1.328;2022-11-12T17:29:40;11.40;99.90
22364;DHT22;11349;53.412;-1.328;2022-11-12T17:32:06;11.40;99.90
22364;DHT22;11349;53.412;-1.328;2022-11-12T17:34:31;11.30;99.90
22364;DHT22;11349;53.412;-1.328;2022-11-12T17:36:57;11.30;99.90
22364;DHT22;11349;53.412;-1.328;2022-11-12T17:39:23;11.20;99.90
22364;DHT22;11349;53.412;-1.328;2022-11-12T17:41:49;11.20;99.90
22364;DHT22;11349;53.412;-1.328;2022-11-12T17:44:16;11.20;99.90
22364;DHT22;11349;53.412;-1.328;2022-11-12T17:46:43;11.10;99.90
22364;DHT22;11349;53.412;-1.328;2022-11-12T17:49:09;11.00;99.90